createdAt,value
2022-07-28T00:00:41.477Z,14.00
2022-07-28T00:03:09.401Z,14.00
2022-07-28T00:05:39.081Z,13.90
2022-07-28T00:08:06.924Z,13.90
2022-07-28T00:10:34.801Z,13.90
2022-07-28T00:13:02.716Z,13.80
2022-07-28T00:15:34.551Z,13.80
2022-07-28T00:18:02.463Z,13.80
2022-07-28T00:20:30.690Z,13.70
2022-07-28T00:23:00.102Z,13.70
2022-07-28T00:25:28.093Z,13.70
2022-07-28T00:27:55.962Z,13.70
2022-07-28T00:30:28.715Z,13.60
2022-07-28T00:32:58.871Z,13.60
2022-07-28T00:35:31.126Z,13.50
2022-07-28T00:38:01.374Z,13.50
2022-07-28T00:40:43.395Z,13.50
2022-07-28T00:43:11.384Z,13.40
2022-07-28T00:45:39.538Z,13.40
2022-07-28T00:48:07.541Z,13.30
2022-07-28T00:50:35.549Z,13.20
2022-07-28T00:53:04.905Z,13.20
2022-07-28T00:55:34.682Z,13.10
2022-07-28T00:58:22.629Z,13.20
2022-07-28T01:00:50.660Z,13.20
2022-07-28T01:03:19.421Z,13.20
2022-07-28T01:05:52.528Z,13.20
2022-07-28T01:08:24.906Z,13.10
2022-07-28T01:10:57.284Z,13.10
2022-07-28T01:13:33.151Z,13.10
2022-07-28T01:16:03.158Z,13.10
2022-07-28T01:18:33.975Z,13.00
2022-07-28T01:21:04.633Z,13.00
2022-07-28T01:23:52.285Z,12.90
2022-07-28T01:26:25.712Z,12.90
2022-07-28T01:29:03.627Z,12.90
2022-07-28T01:31:37.056Z,12.90
2022-07-28T01:34:07.980Z,13.00
2022-07-28T01:36:39.968Z,13.00
2022-07-28T01:39:07.887Z,13.00
2022-07-28T01:41:37.453Z,13.00
2022-07-28T01:44:07.056Z,13.00
2022-07-28T01:46:37.104Z,13.00
2022-07-28T01:49:06.375Z,13.00
2022-07-28T01:51:34.690Z,13.00
2022-07-28T01:54:03.062Z,13.00
2022-07-28T01:56:32.152Z,13.00
2022-07-28T01:59:04.093Z,12.90
2022-07-28T02:01:33.175Z,12.90
2022-07-28T02:04:03.953Z,12.90
2022-07-28T02:06:34.735Z,12.90
2022-07-28T02:09:03.678Z,12.80
2022-07-28T02:11:40.974Z,12.90
2022-07-28T02:14:10.212Z,12.90
2022-07-28T02:16:40.274Z,13.00
2022-07-28T02:19:10.032Z,13.00
2022-07-28T02:21:39.545Z,13.00
2022-07-28T02:24:07.644Z,13.00
2022-07-28T02:26:36.954Z,13.00
2022-07-28T02:29:06.159Z,13.00
2022-07-28T02:31:40.525Z,13.00
2022-07-28T02:34:13.857Z,13.00
2022-07-28T02:36:44.905Z,13.00
2022-07-28T02:39:19.146Z,13.00
2022-07-28T02:41:49.448Z,13.00
2022-07-28T02:44:19.510Z,12.90
2022-07-28T02:46:48.958Z,12.90
2022-07-28T02:49:20.511Z,12.90
2022-07-28T02:51:49.597Z,12.80
2022-07-28T02:54:18.529Z,12.80
2022-07-28T02:56:53.552Z,12.70
2022-07-28T02:59:22.262Z,12.70
2022-07-28T03:01:50.670Z,12.70
2022-07-28T03:04:41.175Z,12.70
2022-07-28T03:07:11.019Z,12.60
2022-07-28T03:09:40.138Z,12.60
2022-07-28T03:12:08.191Z,12.60
2022-07-28T03:14:36.449Z,12.60
2022-07-28T03:17:07.431Z,12.60
2022-07-28T03:19:36.913Z,12.50
2022-07-28T03:22:05.262Z,12.50
2022-07-28T03:24:34.865Z,12.50
2022-07-28T03:27:05.919Z,12.50
2022-07-28T03:29:34.450Z,12.40
2022-07-28T03:32:02.474Z,12.40
2022-07-28T03:34:30.683Z,12.40
2022-07-28T03:37:02.275Z,12.40
2022-07-28T03:39:32.740Z,12.40
2022-07-28T03:42:00.822Z,12.40
2022-07-28T03:44:29.947Z,12.40
2022-07-28T03:46:58.334Z,12.30
2022-07-28T03:49:26.671Z,12.40
2022-07-28T03:51:54.596Z,12.30
2022-07-28T03:54:23.928Z,12.30
2022-07-28T03:56:51.852Z,12.40
2022-07-28T03:59:20.487Z,12.30
2022-07-28T04:01:48.760Z,12.30
2022-07-28T04:04:16.910Z,12.30
2022-07-28T04:06:45.083Z,12.20
2022-07-28T04:09:12.942Z,12.20
2022-07-28T04:11:43.665Z,12.20
2022-07-28T04:14:16.500Z,12.10
2022-07-28T04:16:47.531Z,12.10
2022-07-28T04:19:16.257Z,12.10
2022-07-28T04:21:44.156Z,12.10
2022-07-28T04:24:13.215Z,12.10
2022-07-28T04:26:44.171Z,12.10
2022-07-28T04:29:12.232Z,12.10
2022-07-28T04:31:40.134Z,12.10
2022-07-28T04:34:08.051Z,12.10
2022-07-28T04:36:41.983Z,12.10
2022-07-28T04:39:11.091Z,12.10
2022-07-28T04:41:39.642Z,12.30
2022-07-28T04:44:13.308Z,12.50
2022-07-28T04:46:41.756Z,12.70
2022-07-28T04:49:17.841Z,12.90
2022-07-28T04:51:54.342Z,13.30
2022-07-28T04:54:26.934Z,13.60
2022-07-28T04:56:54.835Z,13.90
2022-07-28T04:59:25.570Z,14.10
2022-07-28T05:01:58.420Z,14.30
2022-07-28T05:04:32.509Z,14.50
2022-07-28T05:07:13.074Z,14.80
2022-07-28T05:09:43.001Z,15.20
2022-07-28T05:12:18.974Z,15.50
2022-07-28T05:18:30.195Z,15.70
2022-07-28T05:25:26.839Z,16.10
2022-07-28T05:28:23.957Z,16.30
2022-07-28T05:31:22.488Z,16.60
2022-07-28T05:34:51.672Z,16.80
2022-07-28T05:41:30.510Z,17.10
2022-07-28T05:50:37.458Z,17.40
2022-07-28T05:53:23.194Z,17.70
2022-07-28T05:56:50.579Z,17.80
2022-07-28T05:59:13.357Z,17.90
2022-07-28T06:06:00.755Z,18.20
2022-07-28T06:08:54.361Z,18.50
2022-07-28T06:15:02.280Z,18.70
2022-07-28T06:20:37.972Z,18.80
2022-07-28T06:26:12.691Z,19.00
2022-07-28T06:28:48.480Z,19.10
2022-07-28T06:31:25.877Z,19.10
2022-07-28T06:34:05.785Z,19.30
2022-07-28T06:36:37.908Z,19.50
2022-07-28T06:39:10.523Z,19.60
2022-07-28T06:41:44.473Z,19.70
2022-07-28T06:44:18.779Z,20.00
2022-07-28T06:46:49.457Z,20.20
2022-07-28T06:49:29.897Z,20.50
2022-07-28T06:52:00.994Z,20.60
2022-07-28T06:54:39.933Z,20.70
2022-07-28T06:57:16.959Z,20.70
2022-07-28T06:59:46.407Z,20.80
2022-07-28T07:02:14.410Z,20.80
2022-07-28T07:04:43.805Z,21.00
2022-07-28T07:07:16.841Z,21.20
2022-07-28T07:09:45.544Z,21.20
2022-07-28T07:12:13.463Z,21.40
2022-07-28T07:14:41.436Z,21.50
2022-07-28T07:17:09.282Z,21.60
2022-07-28T07:19:37.334Z,21.80
2022-07-28T07:22:06.846Z,21.90
2022-07-28T07:24:35.362Z,22.20
2022-07-28T07:27:03.187Z,22.40
2022-07-28T07:29:31.437Z,22.60
2022-07-28T07:31:59.539Z,22.80
2022-07-28T07:34:27.472Z,23.00
2022-07-28T07:36:55.352Z,22.90
2022-07-28T07:39:24.599Z,23.10
2022-07-28T07:41:52.625Z,23.10
2022-07-28T07:44:22.951Z,23.20
2022-07-28T07:46:50.852Z,23.50
2022-07-28T07:49:18.849Z,23.80
2022-07-28T07:51:55.751Z,23.80
2022-07-28T07:54:25.015Z,23.80
2022-07-28T07:56:52.956Z,23.90
2022-07-28T07:59:20.793Z,23.80
2022-07-28T08:01:54.246Z,23.90
2022-07-28T08:04:25.394Z,24.20
2022-07-28T08:06:53.821Z,24.50
2022-07-28T08:09:22.777Z,24.60
2022-07-28T08:11:57.051Z,24.50
2022-07-28T08:14:25.197Z,24.50
2022-07-28T08:16:54.352Z,24.50
2022-07-28T08:19:22.475Z,24.60
2022-07-28T08:21:51.509Z,24.70
2022-07-28T08:24:32.357Z,24.80
2022-07-28T08:27:06.949Z,24.90
2022-07-28T08:29:36.905Z,24.90
2022-07-28T08:32:06.017Z,24.90
2022-07-28T08:34:34.251Z,25.10
2022-07-28T08:37:05.970Z,25.30
2022-07-28T08:39:34.798Z,25.40
2022-07-28T08:42:08.592Z,25.60
2022-07-28T08:44:43.304Z,25.70
2022-07-28T08:47:12.174Z,25.70
2022-07-28T08:49:41.869Z,25.90
2022-07-28T08:52:11.249Z,26.20
2022-07-28T08:54:44.301Z,26.20
2022-07-28T08:57:13.632Z,26.40
2022-07-28T08:59:43.018Z,26.60
2022-07-28T09:02:12.340Z,26.30
2022-07-28T09:04:40.723Z,26.20
2022-07-28T09:07:08.821Z,26.40
2022-07-28T09:09:36.873Z,26.80
2022-07-28T09:12:08.453Z,27.10
2022-07-28T09:14:36.384Z,27.00
2022-07-28T09:17:06.099Z,27.10
2022-07-28T09:19:35.799Z,27.20
2022-07-28T09:22:04.340Z,27.30
2022-07-28T09:24:39.436Z,27.20
2022-07-28T09:27:08.361Z,27.30
2022-07-28T09:29:37.265Z,27.40
2022-07-28T09:32:09.964Z,27.50
2022-07-28T09:34:42.083Z,27.70
2022-07-28T09:37:18.643Z,27.80
2022-07-28T09:39:49.663Z,27.90
2022-07-28T09:42:18.423Z,28.00
2022-07-28T09:45:05.882Z,28.10
2022-07-28T09:47:35.762Z,28.00
2022-07-28T09:50:03.880Z,28.00
2022-07-28T09:52:32.813Z,28.00
2022-07-28T09:55:01.583Z,28.10
2022-07-28T09:57:31.576Z,28.20
2022-07-28T10:00:03.000Z,28.10
2022-07-28T10:02:32.511Z,28.20
2022-07-28T10:05:01.912Z,28.30
2022-07-28T10:07:30.387Z,28.50
2022-07-28T10:10:00.848Z,28.20
2022-07-28T10:12:30.694Z,28.20
2022-07-28T10:14:59.536Z,28.20
2022-07-28T10:17:29.174Z,28.40
2022-07-28T10:19:58.456Z,28.60
2022-07-28T10:22:33.380Z,29.10
2022-07-28T10:25:03.957Z,29.40
2022-07-28T10:27:54.569Z,29.50
2022-07-28T10:30:22.597Z,29.50
2022-07-28T10:32:50.653Z,29.50
2022-07-28T10:35:19.007Z,29.40
2022-07-28T10:38:00.492Z,29.30
2022-07-28T10:40:33.105Z,29.10
2022-07-28T10:43:01.350Z,29.30
2022-07-28T10:45:48.135Z,29.30
2022-07-28T10:48:17.606Z,29.50
2022-07-28T10:50:45.959Z,29.90
2022-07-28T10:53:19.715Z,30.10
2022-07-28T10:55:50.360Z,30.10
2022-07-28T10:58:25.275Z,30.10
2022-07-28T11:01:02.205Z,30.50
2022-07-28T11:03:37.831Z,30.90
2022-07-28T11:06:24.421Z,30.70
2022-07-28T11:08:56.697Z,30.40
2022-07-28T11:12:03.435Z,30.70
2022-07-28T11:14:37.580Z,30.60
2022-07-28T11:17:23.872Z,30.50
2022-07-28T11:22:44.956Z,30.50
2022-07-28T11:25:18.818Z,30.50
2022-07-28T11:28:02.129Z,30.50
2022-07-28T11:31:01.327Z,30.40
2022-07-28T11:33:47.042Z,30.30
2022-07-28T11:36:15.163Z,30.20
2022-07-28T11:39:03.119Z,30.30
2022-07-28T11:41:34.557Z,30.10
2022-07-28T11:44:25.829Z,30.10
2022-07-28T11:46:54.135Z,30.00
2022-07-28T11:49:23.454Z,30.30
2022-07-28T11:52:10.881Z,30.50
2022-07-28T11:54:52.223Z,30.50
2022-07-28T11:57:24.363Z,30.90
2022-07-28T11:59:54.417Z,30.90
2022-07-28T12:02:23.470Z,30.60
2022-07-28T12:05:02.728Z,30.50
2022-07-28T12:07:37.809Z,30.40
2022-07-28T12:10:44.220Z,30.50
2022-07-28T12:13:26.082Z,30.50
2022-07-28T12:15:54.171Z,30.60
2022-07-28T12:18:24.620Z,30.70
2022-07-28T12:20:54.863Z,30.70
2022-07-28T12:23:38.654Z,30.50
2022-07-28T12:26:07.356Z,30.40
2022-07-28T12:28:43.384Z,30.40
2022-07-28T12:31:11.867Z,30.40
2022-07-28T12:33:42.527Z,30.40
2022-07-28T12:36:10.880Z,30.60
2022-07-28T12:38:40.025Z,30.80
2022-07-28T12:41:24.767Z,30.70
2022-07-28T12:43:57.915Z,30.70
2022-07-28T12:46:28.318Z,30.60
2022-07-28T12:48:57.746Z,30.60
2022-07-28T12:51:32.781Z,30.80
2022-07-28T12:54:01.058Z,30.90
2022-07-28T12:56:29.029Z,30.90
2022-07-28T12:59:09.115Z,30.90
2022-07-28T13:01:47.804Z,30.80
2022-07-28T13:04:18.415Z,30.80
2022-07-28T13:06:55.695Z,30.80
2022-07-28T13:09:26.779Z,30.90
2022-07-28T13:12:01.618Z,30.90
2022-07-28T13:14:44.780Z,31.00
2022-07-28T13:17:12.855Z,30.90
2022-07-28T13:19:43.673Z,30.80
2022-07-28T13:22:11.682Z,30.90
2022-07-28T13:24:39.617Z,31.00
2022-07-28T13:27:08.770Z,31.20
2022-07-28T13:29:36.744Z,31.00
2022-07-28T13:32:06.370Z,30.90
2022-07-28T13:34:36.679Z,31.00
2022-07-28T13:37:08.723Z,31.00
2022-07-28T13:39:36.910Z,31.20
2022-07-28T13:42:05.366Z,31.20
2022-07-28T13:44:34.592Z,31.50
2022-07-28T13:47:03.115Z,31.70
2022-07-28T13:49:37.447Z,31.90
2022-07-28T13:52:06.978Z,31.80
2022-07-28T13:54:41.390Z,31.60
2022-07-28T13:57:09.376Z,31.80
2022-07-28T13:59:40.929Z,32.10
2022-07-28T14:02:15.192Z,32.00
2022-07-28T14:04:50.687Z,32.00
2022-07-28T14:07:20.759Z,31.90
2022-07-28T14:09:50.825Z,31.90
2022-07-28T14:12:21.103Z,31.90
2022-07-28T14:14:49.226Z,31.90
2022-07-28T14:20:12.570Z,31.80
2022-07-28T14:22:40.694Z,31.70
2022-07-28T14:25:08.867Z,31.80
2022-07-28T14:27:37.278Z,32.00
2022-07-28T14:30:05.840Z,32.30
2022-07-28T14:32:34.679Z,32.40
2022-07-28T14:35:02.716Z,32.50
2022-07-28T14:37:55.213Z,32.40
2022-07-28T14:40:20.512Z,32.30
2022-07-28T14:42:48.966Z,32.20
2022-07-28T14:45:17.069Z,32.20
2022-07-28T14:47:45.595Z,31.80
2022-07-28T14:50:14.011Z,31.30
2022-07-28T14:52:44.790Z,30.90
2022-07-28T14:55:13.375Z,30.60
2022-07-28T14:57:48.118Z,30.40
2022-07-28T15:00:21.156Z,30.20
2022-07-28T15:02:49.240Z,30.00
2022-07-28T15:05:17.268Z,29.90
2022-07-28T15:07:49.350Z,29.80
2022-07-28T15:10:17.576Z,29.70
2022-07-28T15:12:45.770Z,29.70
2022-07-28T15:15:16.709Z,29.80
2022-07-28T15:17:48.337Z,29.90
2022-07-28T15:20:18.214Z,30.00
2022-07-28T15:22:47.655Z,30.00
2022-07-28T15:25:20.626Z,29.90
2022-07-28T15:27:48.638Z,29.70
2022-07-28T15:30:16.535Z,29.70
2022-07-28T15:32:56.051Z,29.70
2022-07-28T15:35:24.621Z,29.70
2022-07-28T15:37:54.005Z,29.70
2022-07-28T15:40:22.165Z,29.80
2022-07-28T15:42:50.152Z,30.00
2022-07-28T15:45:18.315Z,30.00
2022-07-28T15:47:49.051Z,30.00
2022-07-28T15:50:19.019Z,30.20
2022-07-28T15:52:46.989Z,30.40
2022-07-28T15:55:16.830Z,30.40
2022-07-28T15:57:45.373Z,30.30
2022-07-28T16:00:13.685Z,30.20
2022-07-28T16:02:41.713Z,30.00
2022-07-28T16:05:09.947Z,29.90
2022-07-28T16:07:41.818Z,29.70
2022-07-28T16:10:12.621Z,29.50
2022-07-28T16:12:42.049Z,29.50
2022-07-28T16:15:12.082Z,29.70
2022-07-28T16:17:41.759Z,29.90
2022-07-28T16:20:10.561Z,30.10
2022-07-28T16:22:40.671Z,30.30
2022-07-28T16:25:11.603Z,30.50
2022-07-28T16:27:46.443Z,30.60
2022-07-28T16:30:14.756Z,30.70
2022-07-28T16:32:43.106Z,30.70
2022-07-28T16:35:11.302Z,30.60
2022-07-28T16:37:40.255Z,30.50
2022-07-28T16:40:25.747Z,30.30
2022-07-28T16:46:43.794Z,29.90
2022-07-28T16:49:27.983Z,29.70
2022-07-28T17:15:24.961Z,28.60
2022-07-28T17:17:54.520Z,28.60
2022-07-28T17:20:22.742Z,28.60
2022-07-28T17:22:53.655Z,28.60
2022-07-28T17:25:48.909Z,28.60
2022-07-28T17:28:17.110Z,28.60
2022-07-28T17:30:45.081Z,28.50
2022-07-28T17:33:13.066Z,28.50
2022-07-28T17:35:41.008Z,28.50
2022-07-28T17:38:18.147Z,28.50
2022-07-28T17:40:51.115Z,28.50
2022-07-28T17:43:19.518Z,28.50
2022-07-28T17:45:47.695Z,28.50
2022-07-28T17:48:18.634Z,28.40
2022-07-28T17:50:51.311Z,28.40
2022-07-28T17:53:20.307Z,28.40
2022-07-28T17:56:00.839Z,28.30
2022-07-28T17:58:32.283Z,28.20
2022-07-28T18:01:10.913Z,28.10
2022-07-28T18:03:59.114Z,28.10
2022-07-28T18:06:40.336Z,28.10
2022-07-28T18:09:09.949Z,28.00
2022-07-28T18:11:57.961Z,28.00
2022-07-28T18:14:27.346Z,27.90
2022-07-28T18:16:55.348Z,27.90
2022-07-28T18:19:23.248Z,27.90
2022-07-28T18:21:51.145Z,27.80
2022-07-28T18:24:21.816Z,27.70
2022-07-28T18:26:51.861Z,27.60
2022-07-28T18:29:21.111Z,27.60
2022-07-28T18:31:52.674Z,27.50
2022-07-28T18:34:23.198Z,27.40
2022-07-28T18:36:55.996Z,27.40
2022-07-28T18:39:23.871Z,27.30
2022-07-28T18:41:54.660Z,27.10
2022-07-28T18:44:22.704Z,27.00
2022-07-28T18:46:50.574Z,26.90
2022-07-28T18:49:20.234Z,26.70
2022-07-28T18:51:49.343Z,26.60
2022-07-28T18:54:27.763Z,26.60
2022-07-28T18:56:57.554Z,26.50
2022-07-28T18:59:26.581Z,26.40
2022-07-28T19:01:54.536Z,26.40
2022-07-28T19:04:24.942Z,26.30
2022-07-28T19:06:52.822Z,26.30
2022-07-28T19:09:20.881Z,26.20
2022-07-28T19:11:48.884Z,26.10
2022-07-28T19:14:18.641Z,26.10
2022-07-28T19:16:46.953Z,26.00
2022-07-28T19:19:15.152Z,26.00
2022-07-28T19:21:43.815Z,25.90
2022-07-28T19:24:12.493Z,25.80
2022-07-28T19:26:44.335Z,25.70
2022-07-28T19:29:12.412Z,25.60
2022-07-28T19:31:42.356Z,25.50
2022-07-28T19:34:10.677Z,25.50
2022-07-28T19:36:44.519Z,25.40
2022-07-28T19:39:12.913Z,25.30
2022-07-28T19:41:40.794Z,25.30
2022-07-28T19:44:08.678Z,25.10
2022-07-28T19:46:36.856Z,25.00
2022-07-28T19:49:09.092Z,25.00
2022-07-28T19:51:39.857Z,24.90
2022-07-28T19:54:07.796Z,24.80
2022-07-28T19:56:39.563Z,24.70
2022-07-28T19:59:11.082Z,24.70
2022-07-28T20:01:47.031Z,24.50
2022-07-28T20:04:22.357Z,24.50
2022-07-28T20:06:55.661Z,24.50
2022-07-28T20:09:23.804Z,24.50
2022-07-28T20:12:00.466Z,24.50
2022-07-28T20:14:33.500Z,24.50
2022-07-28T20:17:01.575Z,24.40
2022-07-28T20:19:31.189Z,24.30
2022-07-28T20:21:59.232Z,24.20
2022-07-28T20:24:35.662Z,24.10
2022-07-28T20:27:05.856Z,24.10
2022-07-28T20:29:33.840Z,24.10
2022-07-28T20:32:04.404Z,24.00
2022-07-28T20:34:38.962Z,24.10
2022-07-28T20:37:28.479Z,24.10
2022-07-28T20:39:56.998Z,24.20
2022-07-28T20:42:27.731Z,24.20
2022-07-28T20:44:55.919Z,24.20
2022-07-28T20:47:26.001Z,24.20
2022-07-28T20:49:55.699Z,24.20
2022-07-28T20:52:23.741Z,24.20
2022-07-28T20:54:54.586Z,24.20
2022-07-28T20:57:22.865Z,24.20
2022-07-28T20:59:52.727Z,24.30
2022-07-28T21:02:20.681Z,24.30
2022-07-28T21:04:50.434Z,24.30
2022-07-28T21:07:59.925Z,24.30
2022-07-28T21:10:18.163Z,24.30
2022-07-28T21:12:48.151Z,24.30
2022-07-28T21:15:17.201Z,24.30
2022-07-28T21:17:45.069Z,24.30
2022-07-28T21:20:15.070Z,24.40
2022-07-28T21:22:44.343Z,24.40
2022-07-28T21:25:15.039Z,24.40
2022-07-28T21:28:00.207Z,24.40
2022-07-28T21:30:30.188Z,24.40
2022-07-28T21:32:58.405Z,24.40
2022-07-28T21:35:26.309Z,24.30
2022-07-28T21:37:55.530Z,24.30
2022-07-28T21:40:24.190Z,24.20
2022-07-28T21:42:52.787Z,24.20
2022-07-28T21:45:20.963Z,24.20
2022-07-28T21:47:49.110Z,24.20
2022-07-28T21:50:17.066Z,24.20
2022-07-28T21:52:44.953Z,24.20
2022-07-28T21:55:14.368Z,24.20
2022-07-28T21:57:42.325Z,24.20
2022-07-28T22:00:11.478Z,24.20
2022-07-28T22:02:40.857Z,24.20
2022-07-28T22:05:09.262Z,24.30
2022-07-28T22:07:37.310Z,24.30
2022-07-28T22:10:05.637Z,24.30
2022-07-28T22:12:34.928Z,24.30
2022-07-28T22:15:02.899Z,24.30
2022-07-28T22:17:30.792Z,24.30
2022-07-28T22:20:01.688Z,24.20
2022-07-28T22:22:29.576Z,24.20
2022-07-28T22:24:58.615Z,24.10
2022-07-28T22:27:26.565Z,24.10
2022-07-28T22:29:55.915Z,24.10
2022-07-28T22:32:26.694Z,24.10
2022-07-28T22:34:57.568Z,24.20
2022-07-28T22:37:25.503Z,24.20
2022-07-28T22:39:53.484Z,24.20
2022-07-28T22:42:21.345Z,24.10
2022-07-28T22:44:49.379Z,24.20
2022-07-28T22:47:18.767Z,24.20
2022-07-28T22:49:46.729Z,24.20
2022-07-28T22:52:14.726Z,24.10
2022-07-28T22:54:42.633Z,24.20
2022-07-28T22:57:10.497Z,24.20
2022-07-28T22:59:39.781Z,24.20
2022-07-28T23:02:11.088Z,24.20
2022-07-28T23:04:42.099Z,24.20
2022-07-28T23:07:12.127Z,24.20
2022-07-28T23:09:41.637Z,24.20
2022-07-28T23:12:10.043Z,24.10
2022-07-28T23:14:38.207Z,24.10
2022-07-28T23:17:06.231Z,24.10
2022-07-28T23:19:34.110Z,24.00
2022-07-28T23:22:09.521Z,24.00
2022-07-28T23:24:37.414Z,24.00
2022-07-28T23:27:05.339Z,23.90
2022-07-28T23:29:33.240Z,23.90
2022-07-28T23:32:01.468Z,23.90
2022-07-28T23:34:29.349Z,23.80
2022-07-28T23:36:59.816Z,23.80
2022-07-28T23:39:29.836Z,23.80
